Terminal Aerodrome Forecast
Issued by NWS

Home | Current Version | Previous Version | Text Only | Print | Product List | Glossary Off
Versions: 1 2 3 4 5 6 7 8 9 10 11 12 13 14 15 16 17 18 19

000
FTUS43 KBIS 201100
TAFJMS
TAF
KJMS 201120Z 2012/2112 17010KT 5SM BR BKN005
     FM201400 20010KT P6SM SKC
     FM202000 27014KT P6SM SCT150
     FM210200 32005KT P6SM SKC=

USA.gov is the U.S. government's official web portal to all federal, state and local government web resources and services.